createdAt,value
2023-08-15T00:02:00.600Z,1.50
2023-08-15T00:04:28.527Z,1.63
2023-08-15T00:06:55.542Z,1.70
2023-08-15T00:09:22.378Z,1.67
2023-08-15T00:11:49.149Z,1.70
2023-08-15T00:14:17.145Z,1.90
2023-08-15T00:16:44.114Z,1.33
2023-08-15T00:19:10.913Z,1.80
2023-08-15T00:21:37.987Z,1.70
2023-08-15T00:24:05.233Z,2.00
2023-08-15T00:26:32.446Z,2.67
2023-08-15T00:28:59.758Z,1.50
2023-08-15T00:31:28.418Z,2.20
2023-08-15T00:33:55.446Z,4.07
2023-08-15T00:36:22.313Z,2.00
2023-08-15T00:38:49.119Z,2.33
2023-08-15T00:41:15.990Z,2.10
2023-08-15T00:43:42.847Z,2.20
2023-08-15T00:46:09.859Z,1.83
2023-08-15T00:48:37.532Z,1.87
2023-08-15T00:51:04.573Z,1.90
2023-08-15T00:53:35.229Z,1.83
2023-08-15T00:56:04.038Z,1.50
2023-08-15T00:58:31.937Z,2.03
2023-08-15T01:00:59.074Z,1.67
2023-08-15T01:03:26.212Z,1.73
2023-08-15T01:05:54.377Z,1.80
2023-08-15T01:08:21.532Z,1.90
2023-08-15T01:10:48.704Z,2.23
2023-08-15T01:13:26.837Z,1.83
2023-08-15T01:15:54.093Z,2.03
2023-08-15T01:18:29.680Z,2.23
2023-08-15T01:20:57.468Z,1.90
2023-08-15T01:23:43.984Z,2.80
2023-08-15T01:26:11.573Z,2.40
2023-08-15T01:28:41.639Z,3.37
2023-08-15T01:31:14.394Z,4.03
2023-08-15T01:33:55.921Z,3.40
2023-08-15T01:36:27.454Z,3.67
2023-08-15T01:39:01.557Z,3.73
2023-08-15T01:41:32.774Z,3.30
2023-08-15T01:44:01.235Z,3.60
2023-08-15T01:46:28.431Z,3.63
2023-08-15T01:48:58.748Z,2.90
2023-08-15T01:51:25.672Z,2.60
2023-08-15T01:53:52.648Z,2.40
2023-08-15T01:56:19.667Z,2.20
2023-08-15T01:58:46.555Z,2.33
2023-08-15T02:01:15.246Z,2.27
2023-08-15T02:03:42.198Z,2.33
2023-08-15T02:06:10.487Z,1.97
2023-08-15T02:08:37.286Z,2.00
2023-08-15T02:11:04.317Z,1.83
2023-08-15T02:13:34.892Z,1.87
2023-08-15T02:16:02.581Z,1.53
2023-08-15T02:18:32.906Z,2.27
2023-08-15T02:20:59.901Z,1.87
2023-08-15T02:23:26.895Z,1.60
2023-08-15T02:25:53.774Z,1.63
2023-08-15T02:28:20.633Z,1.70
2023-08-15T02:30:53.992Z,1.73
2023-08-15T02:33:20.861Z,1.80
2023-08-15T02:35:48.028Z,1.80
2023-08-15T02:38:15.030Z,2.20
2023-08-15T02:40:43.043Z,1.57
2023-08-15T02:43:11.693Z,1.77
2023-08-15T02:45:38.592Z,1.47
2023-08-15T02:48:06.666Z,1.70
2023-08-15T02:50:33.498Z,1.90
2023-08-15T02:53:00.344Z,1.50
2023-08-15T02:55:27.269Z,1.80
2023-08-15T02:57:54.147Z,1.60
2023-08-15T03:00:21.170Z,1.87
2023-08-15T03:02:48.703Z,1.80
2023-08-15T03:05:15.853Z,1.73
2023-08-15T03:07:42.801Z,1.63
2023-08-15T03:10:09.927Z,1.70
2023-08-15T03:12:36.811Z,1.90
2023-08-15T03:15:04.694Z,1.60
2023-08-15T03:17:34.268Z,1.60
2023-08-15T03:20:01.211Z,1.77
2023-08-15T03:22:29.651Z,1.63
2023-08-15T03:24:58.943Z,2.10
2023-08-15T03:27:25.758Z,1.93
2023-08-15T03:29:52.628Z,2.17
2023-08-15T03:32:19.610Z,2.10
2023-08-15T03:34:46.424Z,2.10
2023-08-15T03:37:13.315Z,2.03
2023-08-15T03:39:40.189Z,2.03
2023-08-15T03:42:07.249Z,1.90
2023-08-15T03:44:34.151Z,2.07
2023-08-15T03:47:01.018Z,2.03
2023-08-15T03:49:27.854Z,1.90
2023-08-15T03:51:54.663Z,2.13
2023-08-15T03:54:21.934Z,1.70
2023-08-15T03:56:48.848Z,1.80
2023-08-15T03:59:15.731Z,1.73
2023-08-15T04:01:42.577Z,2.07
2023-08-15T04:04:09.607Z,2.17
2023-08-15T04:06:36.584Z,1.67
2023-08-15T04:09:03.878Z,1.80
2023-08-15T04:11:31.107Z,1.80
2023-08-15T04:13:58.936Z,1.50
2023-08-15T04:16:27.173Z,1.67
2023-08-15T04:18:54.012Z,1.90
2023-08-15T04:21:20.844Z,1.70
2023-08-15T04:23:47.721Z,2.00
2023-08-15T04:26:14.531Z,1.57
2023-08-15T04:28:41.416Z,1.73
2023-08-15T04:31:08.439Z,1.90
2023-08-15T04:33:35.322Z,1.77
2023-08-15T04:36:02.309Z,1.83
2023-08-15T04:38:29.149Z,2.13
2023-08-15T04:40:59.223Z,1.77
2023-08-15T04:43:28.002Z,3.03
2023-08-15T04:45:54.990Z,2.47
2023-08-15T04:48:21.954Z,2.13
2023-08-15T04:50:48.890Z,2.97
2023-08-15T04:53:15.724Z,3.57
2023-08-15T04:55:42.598Z,3.50
2023-08-15T04:58:12.181Z,4.70
2023-08-15T05:00:39.058Z,2.50
2023-08-15T05:03:06.239Z,4.47
2023-08-15T05:05:33.245Z,7.47
2023-08-15T05:08:00.239Z,5.83
2023-08-15T05:10:27.414Z,4.17
2023-08-15T05:12:57.570Z,3.77
2023-08-15T05:15:25.229Z,3.53
2023-08-15T05:17:53.415Z,3.27
2023-08-15T05:20:20.352Z,2.63
2023-08-15T05:22:49.382Z,3.97
2023-08-15T05:25:16.245Z,4.00
2023-08-15T05:27:46.283Z,3.07
2023-08-15T05:30:13.337Z,4.93
2023-08-15T05:32:40.473Z,2.83
2023-08-15T05:35:07.741Z,2.90
2023-08-15T05:37:34.769Z,3.00
2023-08-15T05:40:04.386Z,3.67
2023-08-15T05:42:32.319Z,3.13
2023-08-15T05:44:59.377Z,4.40
2023-08-15T05:47:26.288Z,2.73
2023-08-15T05:49:53.135Z,2.83
2023-08-15T05:52:19.963Z,3.53
2023-08-15T05:54:46.943Z,3.70
2023-08-15T05:57:13.745Z,2.93
2023-08-15T05:59:40.647Z,3.00
2023-08-15T06:02:07.493Z,4.53
2023-08-15T06:04:34.406Z,3.20
2023-08-15T06:07:01.275Z,2.70
2023-08-15T06:09:28.393Z,3.10
2023-08-15T06:11:55.319Z,2.80
2023-08-15T06:14:22.425Z,2.83
2023-08-15T06:16:49.704Z,2.90
2023-08-15T06:19:16.881Z,2.22
2023-08-15T06:21:43.804Z,2.80
2023-08-15T06:24:11.959Z,3.00
2023-08-15T06:26:39.506Z,3.22
2023-08-15T06:29:07.499Z,4.57
2023-08-15T06:31:35.563Z,2.75
2023-08-15T06:34:03.570Z,3.00
2023-08-15T06:36:31.095Z,3.53
2023-08-15T06:38:57.905Z,4.70
2023-08-15T06:41:24.805Z,4.50
2023-08-15T06:43:53.374Z,3.15
2023-08-15T06:46:20.286Z,3.58
2023-08-15T06:48:47.223Z,3.92
2023-08-15T06:51:14.040Z,3.88
2023-08-15T06:53:45.196Z,4.15
2023-08-15T06:56:12.358Z,3.72
2023-08-15T06:58:39.726Z,2.50
2023-08-15T07:01:07.464Z,3.88
2023-08-15T07:03:34.927Z,4.22
2023-08-15T07:06:02.331Z,3.90
2023-08-15T07:08:29.152Z,4.63
2023-08-15T07:10:57.253Z,4.13
2023-08-15T07:13:24.261Z,3.97
2023-08-15T07:15:57.665Z,6.90
2023-08-15T07:18:25.202Z,3.72
2023-08-15T07:20:53.031Z,4.07
2023-08-15T07:23:21.534Z,5.03
2023-08-15T07:25:49.134Z,3.42
2023-08-15T07:28:16.137Z,4.07
2023-08-15T07:30:46.520Z,3.53
2023-08-15T07:33:14.949Z,5.03
2023-08-15T07:35:42.540Z,3.70
2023-08-15T07:38:09.665Z,6.70
2023-08-15T07:40:36.492Z,4.22
2023-08-15T07:43:03.379Z,5.82
2023-08-15T07:45:30.476Z,4.45
2023-08-15T07:47:59.553Z,4.38
2023-08-15T07:50:29.023Z,4.00
2023-08-15T07:52:59.287Z,4.40
2023-08-15T07:55:29.761Z,3.40
2023-08-15T07:57:58.048Z,3.70
2023-08-15T08:00:24.935Z,5.28
2023-08-15T08:02:51.791Z,4.28
2023-08-15T08:05:18.752Z,4.57
2023-08-15T08:07:46.482Z,4.57
2023-08-15T08:10:13.529Z,6.85
2023-08-15T08:12:40.393Z,5.15
2023-08-15T08:15:07.755Z,3.42
2023-08-15T08:17:34.904Z,3.58
2023-08-15T08:20:02.745Z,2.85
2023-08-15T08:22:30.399Z,3.35
2023-08-15T08:25:06.198Z,6.20
2023-08-15T08:27:33.587Z,4.45
2023-08-15T08:30:00.618Z,4.18
2023-08-15T08:32:27.523Z,4.95
2023-08-15T08:34:54.307Z,3.45
2023-08-15T08:37:21.102Z,3.83
2023-08-15T08:39:47.871Z,3.72
2023-08-15T08:42:15.393Z,4.25
2023-08-15T08:44:43.293Z,4.82
2023-08-15T08:47:12.269Z,4.13
2023-08-15T08:49:39.479Z,3.22
2023-08-15T08:52:06.541Z,5.43
2023-08-15T08:54:53.834Z,3.70
2023-08-15T08:57:21.376Z,4.70
2023-08-15T08:59:48.727Z,4.35
2023-08-15T09:02:22.706Z,5.63
2023-08-15T09:04:49.878Z,3.47
2023-08-15T09:07:17.474Z,3.83
2023-08-15T09:09:44.388Z,8.20
2023-08-15T09:12:31.187Z,3.45
2023-08-15T09:14:58.026Z,5.65
2023-08-15T09:17:25.186Z,4.15
2023-08-15T09:19:51.988Z,3.88
2023-08-15T09:22:23.316Z,6.28
2023-08-15T09:24:51.740Z,3.65
2023-08-15T09:27:19.764Z,4.00
2023-08-15T09:29:46.881Z,6.63
2023-08-15T09:32:13.715Z,4.90
2023-08-15T09:34:40.530Z,4.93
2023-08-15T09:37:08.839Z,5.85
2023-08-15T09:39:35.773Z,4.40
2023-08-15T09:42:02.591Z,7.00
2023-08-15T09:44:39.051Z,4.78
2023-08-15T09:47:08.315Z,5.50
2023-08-15T09:49:35.676Z,5.25
2023-08-15T09:52:03.631Z,3.78
2023-08-15T09:54:31.736Z,6.05
2023-08-15T09:56:58.675Z,4.45
2023-08-15T09:59:25.676Z,4.00
2023-08-15T10:01:54.914Z,4.53
2023-08-15T10:04:23.979Z,4.38
2023-08-15T10:06:52.843Z,4.00
2023-08-15T10:09:20.230Z,4.00
2023-08-15T10:11:47.191Z,4.18
2023-08-15T10:14:17.333Z,5.03
2023-08-15T10:16:44.576Z,6.22
2023-08-15T10:19:19.552Z,4.40
2023-08-15T10:21:54.068Z,4.72
2023-08-15T10:24:23.024Z,5.32
2023-08-15T10:26:53.564Z,4.97
2023-08-15T10:29:20.381Z,5.88
2023-08-15T10:31:47.147Z,4.20
2023-08-15T10:34:13.988Z,4.15
2023-08-15T10:36:42.426Z,4.95
2023-08-15T10:39:09.440Z,5.25
2023-08-15T10:41:39.506Z,4.57
2023-08-15T10:44:08.847Z,5.22
2023-08-15T10:46:37.478Z,6.13
2023-08-15T10:49:14.564Z,4.63
2023-08-15T10:51:42.698Z,6.07
2023-08-15T10:54:14.928Z,4.80
2023-08-15T10:56:43.266Z,6.38
2023-08-15T10:59:15.612Z,6.30
2023-08-15T11:01:44.541Z,6.22
2023-08-15T11:04:15.325Z,5.95
2023-08-15T11:06:48.133Z,4.43
2023-08-15T11:09:16.189Z,8.00
2023-08-15T11:11:43.487Z,5.00
2023-08-15T11:14:20.750Z,6.88
2023-08-15T11:16:49.894Z,9.07
2023-08-15T11:19:18.484Z,5.10
2023-08-15T11:21:45.628Z,4.93
2023-08-15T11:24:12.577Z,3.45
2023-08-15T11:26:41.145Z,7.68
2023-08-15T11:29:10.316Z,5.53
2023-08-15T11:31:38.044Z,3.20
2023-08-15T11:34:06.297Z,5.45
2023-08-15T11:36:33.316Z,7.15
2023-08-15T11:39:03.046Z,7.68
2023-08-15T11:41:32.542Z,4.88
2023-08-15T11:44:01.868Z,8.43
2023-08-15T11:46:33.520Z,5.13
2023-08-15T11:49:06.722Z,6.88
2023-08-15T11:51:33.624Z,6.57
2023-08-15T11:54:00.574Z,4.85
2023-08-15T11:56:27.422Z,5.75
2023-08-15T11:58:54.248Z,4.68
2023-08-15T12:01:23.291Z,8.30
2023-08-15T12:03:53.368Z,3.38
2023-08-15T12:06:20.274Z,4.65
2023-08-15T12:08:47.634Z,3.30
2023-08-15T12:11:20.171Z,5.82
2023-08-15T12:13:47.044Z,4.57
2023-08-15T12:16:14.016Z,3.40
2023-08-15T12:18:41.765Z,3.53
2023-08-15T12:21:10.538Z,4.05
2023-08-15T12:23:38.437Z,7.28
2023-08-15T12:26:05.252Z,3.90
2023-08-15T12:28:32.253Z,4.03
2023-08-15T12:30:59.106Z,4.15
2023-08-15T12:33:39.946Z,4.72
2023-08-15T12:36:10.608Z,4.30
2023-08-15T12:38:37.496Z,5.22
2023-08-15T12:41:04.309Z,5.38
2023-08-15T12:43:31.140Z,5.63
2023-08-15T12:45:58.038Z,4.70
2023-08-15T12:48:24.868Z,4.20
2023-08-15T12:50:51.806Z,5.22
2023-08-15T12:53:18.669Z,8.13
2023-08-15T12:55:46.493Z,6.20
2023-08-15T12:58:13.400Z,5.65
2023-08-15T13:00:42.600Z,3.47
2023-08-15T13:03:10.510Z,7.13
2023-08-15T13:05:37.557Z,7.60
2023-08-15T13:08:04.710Z,7.60
2023-08-15T13:10:31.664Z,6.40
2023-08-15T13:12:58.539Z,3.78
2023-08-15T13:15:25.595Z,5.88
2023-08-15T13:17:52.623Z,6.40
2023-08-15T13:20:19.485Z,6.68
2023-08-15T13:22:46.344Z,3.85
2023-08-15T13:25:13.252Z,6.75
2023-08-15T13:27:40.036Z,7.28
2023-08-15T13:30:08.629Z,3.58
2023-08-15T13:32:35.615Z,5.00
2023-08-15T13:35:03.665Z,4.05
2023-08-15T13:37:30.507Z,5.53
2023-08-15T13:39:58.673Z,6.68
2023-08-15T13:44:55.850Z,3.78
2023-08-15T13:47:22.865Z,8.15
2023-08-15T13:49:49.998Z,3.70
2023-08-15T13:52:16.811Z,3.58
2023-08-15T13:54:43.652Z,5.90
2023-08-15T13:57:11.003Z,6.57
2023-08-15T13:59:37.860Z,4.00
2023-08-15T14:02:04.877Z,4.57
2023-08-15T14:04:32.793Z,4.90
2023-08-15T14:07:02.593Z,4.22
2023-08-15T14:09:30.701Z,7.45
2023-08-15T14:11:57.501Z,6.75
2023-08-15T14:14:24.408Z,6.20
2023-08-15T14:16:52.235Z,8.48
2023-08-15T14:19:19.087Z,7.32
2023-08-15T14:21:45.971Z,3.15
2023-08-15T14:24:13.030Z,6.00
2023-08-15T14:26:39.922Z,10.57
2023-08-15T14:29:06.745Z,20.35
2023-08-15T14:31:33.620Z,20.60
2023-08-15T14:34:00.482Z,18.38
2023-08-15T14:36:27.275Z,11.93
2023-08-15T14:38:54.446Z,5.45
2023-08-15T14:41:21.321Z,6.85
2023-08-15T14:43:48.113Z,5.97
2023-08-15T14:46:14.964Z,7.07
2023-08-15T14:48:41.805Z,3.03
2023-08-15T14:51:08.765Z,10.00
2023-08-15T14:53:35.581Z,7.35
2023-08-15T14:56:02.462Z,7.60
2023-08-15T14:58:29.357Z,4.50
2023-08-15T15:00:56.276Z,3.92
2023-08-15T15:03:23.150Z,4.60
2023-08-15T15:05:50.067Z,6.78
2023-08-15T15:08:16.917Z,4.57
2023-08-15T15:10:43.812Z,3.75
2023-08-15T15:13:10.685Z,5.75
2023-08-15T15:15:53.145Z,4.88
2023-08-15T15:18:21.972Z,7.05
2023-08-15T15:20:49.290Z,4.35
2023-08-15T15:23:16.769Z,3.22
2023-08-15T15:25:47.760Z,6.97
2023-08-15T15:28:15.015Z,4.80
2023-08-15T15:30:41.884Z,8.57
2023-08-15T15:33:08.774Z,4.55
2023-08-15T15:35:35.673Z,5.00
2023-08-15T15:38:02.575Z,5.45
2023-08-15T15:40:29.596Z,4.93
2023-08-15T15:42:56.404Z,4.47
2023-08-15T15:45:23.277Z,2.97
2023-08-15T15:47:50.298Z,3.70
2023-08-15T15:50:24.757Z,5.18
2023-08-15T15:52:52.217Z,4.10
2023-08-15T15:55:23.133Z,3.13
2023-08-15T15:57:51.591Z,6.75
2023-08-15T16:00:20.999Z,4.05
2023-08-15T16:02:49.175Z,5.43
2023-08-15T16:05:16.190Z,5.85
2023-08-15T16:07:43.141Z,3.92
2023-08-15T16:10:11.889Z,3.28
2023-08-15T16:12:39.037Z,5.75
2023-08-15T16:15:06.305Z,4.80
2023-08-15T16:17:33.954Z,4.35
2023-08-15T16:20:00.949Z,5.72
2023-08-15T16:22:27.874Z,5.97
2023-08-15T16:24:54.706Z,5.53
2023-08-15T16:27:21.542Z,6.03
2023-08-15T16:29:49.363Z,3.70
2023-08-15T16:32:17.510Z,3.25
2023-08-15T16:34:44.527Z,4.97
2023-08-15T16:37:11.458Z,5.45
2023-08-15T16:39:38.544Z,4.43
2023-08-15T16:42:05.706Z,3.00
2023-08-15T16:44:32.805Z,3.88
2023-08-15T16:46:59.721Z,9.45
2023-08-15T16:49:27.007Z,3.25
2023-08-15T16:51:53.864Z,3.80
2023-08-15T16:54:20.720Z,8.50
2023-08-15T16:56:47.545Z,3.60
2023-08-15T16:59:14.359Z,4.05
2023-08-15T17:01:41.183Z,3.17
2023-08-15T17:04:08.156Z,4.07
2023-08-15T17:06:35.952Z,6.43
2023-08-15T17:09:03.034Z,4.70
2023-08-15T17:11:29.885Z,5.15
2023-08-15T17:13:56.759Z,5.28
2023-08-15T17:16:23.731Z,3.80
2023-08-15T17:18:50.555Z,5.63
2023-08-15T17:21:17.404Z,7.80
2023-08-15T17:23:44.387Z,2.83
2023-08-15T17:26:11.300Z,4.53
2023-08-15T17:28:38.326Z,3.10
2023-08-15T17:31:06.293Z,3.17
2023-08-15T17:33:33.214Z,3.17
2023-08-15T17:36:00.190Z,3.30
2023-08-15T17:38:27.064Z,3.20
2023-08-15T17:40:53.996Z,4.47
2023-08-15T17:43:20.938Z,7.30
2023-08-15T17:45:47.848Z,5.28
2023-08-15T17:48:15.252Z,6.28
2023-08-15T17:50:42.206Z,5.85
2023-08-15T17:53:09.052Z,3.30
2023-08-15T17:55:35.903Z,6.53
2023-08-15T17:58:02.746Z,3.25
2023-08-15T18:00:29.919Z,4.03
2023-08-15T18:02:57.968Z,2.65
2023-08-15T18:05:26.920Z,3.28
2023-08-15T18:07:53.766Z,3.30
2023-08-15T18:10:20.669Z,2.92
2023-08-15T18:12:47.514Z,4.03
2023-08-15T18:15:14.420Z,2.83
2023-08-15T18:17:41.430Z,2.58
2023-08-15T18:20:09.105Z,2.40
2023-08-15T18:22:38.778Z,2.33
2023-08-15T18:25:05.893Z,2.90
2023-08-15T18:27:32.745Z,2.70
2023-08-15T18:30:02.107Z,2.60
2023-08-15T18:32:29.130Z,2.85
2023-08-15T18:34:55.982Z,2.15
2023-08-15T18:37:22.844Z,5.35
2023-08-15T18:39:49.721Z,3.75
2023-08-15T18:42:16.572Z,3.40
2023-08-15T18:44:44.619Z,5.50
2023-08-15T18:47:11.706Z,3.25
2023-08-15T18:49:38.616Z,3.25
2023-08-15T18:52:05.506Z,3.65
2023-08-15T18:54:32.303Z,3.10
2023-08-15T18:56:59.148Z,3.92
2023-08-15T18:59:25.969Z,4.10
2023-08-15T19:01:52.941Z,2.97
2023-08-15T19:04:19.788Z,2.80
2023-08-15T19:06:46.688Z,3.35
2023-08-15T19:09:13.911Z,2.20
2023-08-15T19:11:40.843Z,3.15
2023-08-15T19:14:07.713Z,2.80
2023-08-15T19:16:34.543Z,2.50
2023-08-15T19:19:05.085Z,2.70
2023-08-15T19:21:32.090Z,3.03
2023-08-15T19:23:58.968Z,4.15
2023-08-15T19:26:25.837Z,4.97
2023-08-15T19:28:55.268Z,3.67
2023-08-15T19:31:22.692Z,2.63
2023-08-15T19:33:49.854Z,2.40
2023-08-15T19:36:17.153Z,2.63
2023-08-15T19:38:44.341Z,2.38
2023-08-15T19:41:12.253Z,2.35
2023-08-15T19:43:40.474Z,2.20
2023-08-15T19:46:07.788Z,2.20
2023-08-15T19:48:34.685Z,2.05
2023-08-15T19:51:01.548Z,2.25
2023-08-15T19:53:29.467Z,2.22
2023-08-15T19:55:56.275Z,3.38
2023-08-15T19:58:23.263Z,2.42
2023-08-15T20:00:50.212Z,2.47
2023-08-15T20:03:17.100Z,2.15
2023-08-15T20:05:44.027Z,2.35
2023-08-15T20:08:10.834Z,2.55
2023-08-15T20:10:37.688Z,2.25
2023-08-15T20:13:04.665Z,2.25
2023-08-15T20:15:31.523Z,2.40
2023-08-15T20:17:58.973Z,2.40
2023-08-15T20:20:25.794Z,2.63
2023-08-15T20:22:53.516Z,2.60
2023-08-15T20:25:20.427Z,3.40
2023-08-15T20:27:47.299Z,2.40
2023-08-15T20:30:15.531Z,2.47
2023-08-15T20:32:42.513Z,2.55
2023-08-15T20:35:10.888Z,3.40
2023-08-15T20:37:37.843Z,2.72
2023-08-15T20:40:10.092Z,3.20
2023-08-15T20:42:37.179Z,2.63
2023-08-15T20:45:04.588Z,4.32
2023-08-15T20:47:31.587Z,2.47
2023-08-15T20:49:59.542Z,2.83
2023-08-15T20:52:26.378Z,3.53
2023-08-15T20:54:53.200Z,2.20
2023-08-15T20:57:20.358Z,3.13
2023-08-15T20:59:47.177Z,2.40
2023-08-15T21:02:14.068Z,2.95
2023-08-15T21:04:40.997Z,2.80
2023-08-15T21:07:08.026Z,3.65
2023-08-15T21:09:34.861Z,3.13
2023-08-15T21:12:01.791Z,2.45
2023-08-15T21:14:28.647Z,2.83
2023-08-15T21:16:55.562Z,3.22
2023-08-15T21:19:22.540Z,2.80
2023-08-15T21:21:49.367Z,2.88
2023-08-15T21:24:16.192Z,3.70
2023-08-15T21:26:43.007Z,2.83
2023-08-15T21:29:09.825Z,2.60
2023-08-15T21:31:36.678Z,2.88
2023-08-15T21:34:03.686Z,2.50
2023-08-15T21:36:30.590Z,2.92
2023-08-15T21:38:57.450Z,2.90
2023-08-15T21:41:24.284Z,2.58
2023-08-15T21:43:51.093Z,3.10
2023-08-15T21:46:17.908Z,2.20
2023-08-15T21:48:44.746Z,2.90
2023-08-15T21:51:11.575Z,2.58
2023-08-15T21:53:38.448Z,2.53
2023-08-15T21:56:05.353Z,3.00
2023-08-15T21:58:32.200Z,2.50
2023-08-15T22:00:59.073Z,2.95
2023-08-15T22:03:25.983Z,2.47
2023-08-15T22:05:52.880Z,3.40
2023-08-15T22:08:19.772Z,2.80
2023-08-15T22:10:50.136Z,2.87
2023-08-15T22:13:17.087Z,3.30
2023-08-15T22:15:45.460Z,2.80
2023-08-15T22:18:20.393Z,3.17
2023-08-15T22:20:48.697Z,2.50
2023-08-15T22:23:15.733Z,2.60
2023-08-15T22:25:49.494Z,3.00
2023-08-15T22:28:16.964Z,3.20
2023-08-15T22:30:44.718Z,2.83
2023-08-15T22:33:11.555Z,2.83
2023-08-15T22:35:39.833Z,4.30
2023-08-15T22:38:06.864Z,3.40
2023-08-15T22:40:33.875Z,4.20
2023-08-15T22:43:00.784Z,3.00
2023-08-15T22:45:27.704Z,2.90
2023-08-15T22:47:54.801Z,2.90
2023-08-15T22:50:21.651Z,3.80
2023-08-15T22:52:49.194Z,3.10
2023-08-15T22:55:16.088Z,3.00
2023-08-15T22:57:42.901Z,2.90
2023-08-15T23:00:10.933Z,2.63
2023-08-15T23:02:38.359Z,2.70
2023-08-15T23:05:05.918Z,2.57
2023-08-15T23:07:32.881Z,2.77
2023-08-15T23:09:59.798Z,2.83
2023-08-15T23:12:26.609Z,3.20
2023-08-15T23:14:53.521Z,2.77
2023-08-15T23:17:20.805Z,3.00
2023-08-15T23:19:47.866Z,2.90
2023-08-15T23:22:14.746Z,2.90
2023-08-15T23:24:41.574Z,2.80
2023-08-15T23:27:08.828Z,2.47
2023-08-15T23:29:35.689Z,2.87
2023-08-15T23:34:31.895Z,2.50
2023-08-15T23:36:58.771Z,2.60
2023-08-15T23:39:26.184Z,2.67
2023-08-15T23:41:53.149Z,2.77
2023-08-15T23:44:20.164Z,3.00
2023-08-15T23:46:48.602Z,3.00
2023-08-15T23:49:15.922Z,3.10
2023-08-15T23:51:42.752Z,4.87
2023-08-15T23:54:09.587Z,5.67
2023-08-15T23:56:36.476Z,7.37
2023-08-15T23:59:04.058Z,7.43
